sensor_id;sensor_type;location;lat;lon;timestamp;temperature;humidity
67901;DHT22;54700;51.796;10.956;2022-07-11T00:00:48;13.60;74.00
67901;DHT22;54700;51.796;10.956;2022-07-11T00:03:14;13.50;74.00
67901;DHT22;54700;51.796;10.956;2022-07-11T00:05:42;13.50;74.70
67901;DHT22;54700;51.796;10.956;2022-07-11T00:08:09;13.50;74.80
67901;DHT22;54700;51.796;10.956;2022-07-11T00:10:36;13.50;74.80
67901;DHT22;54700;51.796;10.956;2022-07-11T00:13:02;13.50;74.60
67901;DHT22;54700;51.796;10.956;2022-07-11T00:15:29;13.50;74.70
67901;DHT22;54700;51.796;10.956;2022-07-11T00:17:56;13.50;75.10
67901;DHT22;54700;51.796;10.956;2022-07-11T00:20:22;13.50;75.30
67901;DHT22;54700;51.796;10.956;2022-07-11T00:22:50;13.50;75.40
67901;DHT22;54700;51.796;10.956;2022-07-11T00:25:17;13.50;75.50
67901;DHT22;54700;51.796;10.956;2022-07-11T00:27:44;13.40;76.10
67901;DHT22;54700;51.796;10.956;2022-07-11T00:30:11;13.40;75.70
67901;DHT22;54700;51.796;10.956;2022-07-11T00:32:37;13.40;75.90
67901;DHT22;54700;51.796;10.956;2022-07-11T00:35:05;13.40;76.00
67901;DHT22;54700;51.796;10.956;2022-07-11T00:37:32;13.40;76.10
67901;DHT22;54700;51.796;10.956;2022-07-11T00:40:00;13.40;75.80
67901;DHT22;54700;51.796;10.956;2022-07-11T00:42:26;13.40;76.00
67901;DHT22;54700;51.796;10.956;2022-07-11T00:44:53;13.40;76.60
67901;DHT22;54700;51.796;10.956;2022-07-11T00:47:20;13.40;76.50
67901;DHT22;54700;51.796;10.956;2022-07-11T00:49:46;13.40;76.70
67901;DHT22;54700;51.796;10.956;2022-07-11T00:52:13;13.40;77.00
67901;DHT22;54700;51.796;10.956;2022-07-11T00:54:40;13.40;77.10
67901;DHT22;54700;51.796;10.956;2022-07-11T00:57:08;13.50;77.10
67901;DHT22;54700;51.796;10.956;2022-07-11T00:59:35;13.50;77.10
67901;DHT22;54700;51.796;10.956;2022-07-11T01:02:02;13.50;77.00
67901;DHT22;54700;51.796;10.956;2022-07-11T01:04:30;13.60;77.00
67901;DHT22;54700;51.796;10.956;2022-07-11T01:06:57;13.70;76.90
67901;DHT22;54700;51.796;10.956;2022-07-11T01:09:24;13.70;76.80
67901;DHT22;54700;51.796;10.956;2022-07-11T01:11:51;13.70;76.60
67901;DHT22;54700;51.796;10.956;2022-07-11T01:14:19;13.80;77.10
67901;DHT22;54700;51.796;10.956;2022-07-11T01:16:46;13.70;77.20
67901;DHT22;54700;51.796;10.956;2022-07-11T01:19:12;13.70;77.20
67901;DHT22;54700;51.796;10.956;2022-07-11T01:21:39;13.70;77.50
67901;DHT22;54700;51.796;10.956;2022-07-11T01:24:12;13.70;77.90
67901;DHT22;54700;51.796;10.956;2022-07-11T01:26:39;13.70;77.80
67901;DHT22;54700;51.796;10.956;2022-07-11T01:29:06;13.70;77.80
67901;DHT22;54700;51.796;10.956;2022-07-11T01:31:35;13.70;77.80
67901;DHT22;54700;51.796;10.956;2022-07-11T01:34:04;13.80;77.80
67901;DHT22;54700;51.796;10.956;2022-07-11T01:36:31;13.80;78.10
67901;DHT22;54700;51.796;10.956;2022-07-11T01:38:58;13.80;78.00
67901;DHT22;54700;51.796;10.956;2022-07-11T01:41:26;13.80;78.30
67901;DHT22;54700;51.796;10.956;2022-07-11T01:43:52;13.90;78.10
67901;DHT22;54700;51.796;10.956;2022-07-11T01:46:19;13.90;78.50
67901;DHT22;54700;51.796;10.956;2022-07-11T01:48:47;13.90;78.20
67901;DHT22;54700;51.796;10.956;2022-07-11T01:51:13;13.90;77.90
67901;DHT22;54700;51.796;10.956;2022-07-11T01:53:40;13.70;78.20
67901;DHT22;54700;51.796;10.956;2022-07-11T01:56:07;13.50;79.20
67901;DHT22;54700;51.796;10.956;2022-07-11T01:58:35;13.40;79.50
67901;DHT22;54700;51.796;10.956;2022-07-11T02:01:02;13.40;79.80
67901;DHT22;54700;51.796;10.956;2022-07-11T02:03:29;13.50;79.80
67901;DHT22;54700;51.796;10.956;2022-07-11T02:05:56;13.50;79.90
67901;DHT22;54700;51.796;10.956;2022-07-11T02:08:23;13.50;80.00
67901;DHT22;54700;51.796;10.956;2022-07-11T02:10:50;13.50;80.00
67901;DHT22;54700;51.796;10.956;2022-07-11T02:13:18;13.50;80.10
67901;DHT22;54700;51.796;10.956;2022-07-11T02:15:47;13.60;80.20
67901;DHT22;54700;51.796;10.956;2022-07-11T02:18:16;13.60;80.20
67901;DHT22;54700;51.796;10.956;2022-07-11T02:20:44;13.50;80.10
67901;DHT22;54700;51.796;10.956;2022-07-11T02:23:14;13.50;80.70
67901;DHT22;54700;51.796;10.956;2022-07-11T02:25:41;13.50;80.90
67901;DHT22;54700;51.796;10.956;2022-07-11T02:28:10;13.50;81.10
67901;DHT22;54700;51.796;10.956;2022-07-11T02:30:38;13.40;81.10
67901;DHT22;54700;51.796;10.956;2022-07-11T02:33:07;13.40;81.60
67901;DHT22;54700;51.796;10.956;2022-07-11T02:35:39;13.40;81.60
67901;DHT22;54700;51.796;10.956;2022-07-11T02:38:05;13.40;81.60
67901;DHT22;54700;51.796;10.956;2022-07-11T02:40:32;13.50;81.60
67901;DHT22;54700;51.796;10.956;2022-07-11T02:42:59;13.50;81.50
67901;DHT22;54700;51.796;10.956;2022-07-11T02:45:25;13.50;81.30
67901;DHT22;54700;51.796;10.956;2022-07-11T02:47:52;13.50;81.60
67901;DHT22;54700;51.796;10.956;2022-07-11T02:50:20;13.50;81.70
67901;DHT22;54700;51.796;10.956;2022-07-11T02:52:47;13.50;81.90
67901;DHT22;54700;51.796;10.956;2022-07-11T02:55:14;13.40;81.80
67901;DHT22;54700;51.796;10.956;2022-07-11T02:57:41;13.40;82.30
67901;DHT22;54700;51.796;10.956;2022-07-11T03:00:09;13.40;81.80
67901;DHT22;54700;51.796;10.956;2022-07-11T03:02:37;13.30;82.10
67901;DHT22;54700;51.796;10.956;2022-07-11T03:05:04;13.30;81.80
67901;DHT22;54700;51.796;10.956;2022-07-11T03:07:33;13.30;82.40
67901;DHT22;54700;51.796;10.956;2022-07-11T03:10:00;13.30;82.00
67901;DHT22;54700;51.796;10.956;2022-07-11T03:12:27;13.20;82.20
67901;DHT22;54700;51.796;10.956;2022-07-11T03:14:53;13.20;81.80
67901;DHT22;54700;51.796;10.956;2022-07-11T03:17:20;13.20;81.80
67901;DHT22;54700;51.796;10.956;2022-07-11T03:19:47;13.20;81.70
67901;DHT22;54700;51.796;10.956;2022-07-11T03:22:13;13.20;81.70
67901;DHT22;54700;51.796;10.956;2022-07-11T03:24:42;13.30;81.70
67901;DHT22;54700;51.796;10.956;2022-07-11T03:27:09;13.30;81.70
67901;DHT22;54700;51.796;10.956;2022-07-11T03:29:36;13.30;81.90
67901;DHT22;54700;51.796;10.956;2022-07-11T03:32:03;13.30;81.80
67901;DHT22;54700;51.796;10.956;2022-07-11T03:34:30;13.30;82.20
67901;DHT22;54700;51.796;10.956;2022-07-11T03:36:57;13.30;81.90
67901;DHT22;54700;51.796;10.956;2022-07-11T03:39:24;13.30;81.40
67901;DHT22;54700;51.796;10.956;2022-07-11T03:41:52;13.30;81.60
67901;DHT22;54700;51.796;10.956;2022-07-11T03:44:19;13.40;81.60
67901;DHT22;54700;51.796;10.956;2022-07-11T03:46:46;13.30;81.40
67901;DHT22;54700;51.796;10.956;2022-07-11T03:49:13;13.40;81.40
67901;DHT22;54700;51.796;10.956;2022-07-11T03:51:40;13.40;81.40
67901;DHT22;54700;51.796;10.956;2022-07-11T03:54:06;13.50;81.10
67901;DHT22;54700;51.796;10.956;2022-07-11T03:56:33;13.60;80.70
67901;DHT22;54700;51.796;10.956;2022-07-11T03:59:01;13.80;80.10
67901;DHT22;54700;51.796;10.956;2022-07-11T04:01:28;13.90;79.60
67901;DHT22;54700;51.796;10.956;2022-07-11T04:03:55;14.00;80.10
67901;DHT22;54700;51.796;10.956;2022-07-11T04:06:25;14.00;78.90
67901;DHT22;54700;51.796;10.956;2022-07-11T04:08:52;14.10;78.80
67901;DHT22;54700;51.796;10.956;2022-07-11T04:11:19;14.10;78.60
67901;DHT22;54700;51.796;10.956;2022-07-11T04:13:46;14.00;79.00
67901;DHT22;54700;51.796;10.956;2022-07-11T04:16:14;14.00;79.20
67901;DHT22;54700;51.796;10.956;2022-07-11T04:18:42;14.00;79.40
67901;DHT22;54700;51.796;10.956;2022-07-11T04:21:11;13.90;80.00
67901;DHT22;54700;51.796;10.956;2022-07-11T04:23:38;13.90;80.20
67901;DHT22;54700;51.796;10.956;2022-07-11T04:26:08;13.90;80.30
67901;DHT22;54700;51.796;10.956;2022-07-11T04:28:35;13.90;80.40
67901;DHT22;54700;51.796;10.956;2022-07-11T04:31:01;13.90;80.50
67901;DHT22;54700;51.796;10.956;2022-07-11T04:33:29;13.90;80.60
67901;DHT22;54700;51.796;10.956;2022-07-11T04:35:56;13.90;80.50
67901;DHT22;54700;51.796;10.956;2022-07-11T04:38:23;13.90;80.30
67901;DHT22;54700;51.796;10.956;2022-07-11T04:40:50;13.90;80.40
67901;DHT22;54700;51.796;10.956;2022-07-11T04:43:23;14.00;80.30
67901;DHT22;54700;51.796;10.956;2022-07-11T04:45:50;14.10;79.50
67901;DHT22;54700;51.796;10.956;2022-07-11T04:48:17;14.20;79.20
67901;DHT22;54700;51.796;10.956;2022-07-11T04:50:45;14.30;78.90
67901;DHT22;54700;51.796;10.956;2022-07-11T04:53:12;14.30;78.60
67901;DHT22;54700;51.796;10.956;2022-07-11T04:55:39;14.40;78.60
67901;DHT22;54700;51.796;10.956;2022-07-11T04:58:29;14.40;78.70
67901;DHT22;54700;51.796;10.956;2022-07-11T05:01:04;14.50;78.60
67901;DHT22;54700;51.796;10.956;2022-07-11T05:03:41;14.70;77.80
67901;DHT22;54700;51.796;10.956;2022-07-11T05:06:13;14.90;76.20
67901;DHT22;54700;51.796;10.956;2022-07-11T05:08:43;15.10;75.70
67901;DHT22;54700;51.796;10.956;2022-07-11T05:11:11;15.50;74.50
67901;DHT22;54700;51.796;10.956;2022-07-11T05:13:39;16.40;71.80
67901;DHT22;54700;51.796;10.956;2022-07-11T05:16:31;17.00;69.40
67901;DHT22;54700;51.796;10.956;2022-07-11T05:18:58;17.30;67.50
67901;DHT22;54700;51.796;10.956;2022-07-11T05:21:26;17.10;66.80
67901;DHT22;54700;51.796;10.956;2022-07-11T05:23:56;16.70;67.40
67901;DHT22;54700;51.796;10.956;2022-07-11T05:26:23;16.90;68.50
67901;DHT22;54700;51.796;10.956;2022-07-11T05:28:50;17.90;65.00
67901;DHT22;54700;51.796;10.956;2022-07-11T05:31:18;18.90;61.50
67901;DHT22;54700;51.796;10.956;2022-07-11T05:33:45;18.70;61.00
67901;DHT22;54700;51.796;10.956;2022-07-11T05:36:14;18.10;62.80
67901;DHT22;54700;51.796;10.956;2022-07-11T05:38:45;17.60;63.90
67901;DHT22;54700;51.796;10.956;2022-07-11T05:41:12;17.20;64.80
67901;DHT22;54700;51.796;10.956;2022-07-11T05:43:44;16.90;66.10
67901;DHT22;54700;51.796;10.956;2022-07-11T05:46:16;16.50;66.90
67901;DHT22;54700;51.796;10.956;2022-07-11T05:48:43;16.30;68.20
67901;DHT22;54700;51.796;10.956;2022-07-11T05:51:12;16.10;68.60
67901;DHT22;54700;51.796;10.956;2022-07-11T05:53:50;16.10;69.00
67901;DHT22;54700;51.796;10.956;2022-07-11T05:56:19;15.90;69.50
67901;DHT22;54700;51.796;10.956;2022-07-11T05:58:46;15.90;70.20
67901;DHT22;54700;51.796;10.956;2022-07-11T06:01:14;15.70;70.10
67901;DHT22;54700;51.796;10.956;2022-07-11T06:03:44;15.50;70.40
67901;DHT22;54700;51.796;10.956;2022-07-11T06:06:18;15.30;71.20
67901;DHT22;54700;51.796;10.956;2022-07-11T06:08:49;15.30;71.80
67901;DHT22;54700;51.796;10.956;2022-07-11T06:11:21;15.20;72.00
67901;DHT22;54700;51.796;10.956;2022-07-11T06:13:51;15.10;72.00
67901;DHT22;54700;51.796;10.956;2022-07-11T06:16:18;15.10;72.20
67901;DHT22;54700;51.796;10.956;2022-07-11T06:18:45;15.10;72.40
67901;DHT22;54700;51.796;10.956;2022-07-11T06:21:16;15.20;72.80
67901;DHT22;54700;51.796;10.956;2022-07-11T06:23:43;15.20;72.50
67901;DHT22;54700;51.796;10.956;2022-07-11T06:29:00;15.50;71.70
67901;DHT22;54700;51.796;10.956;2022-07-11T06:31:37;15.80;71.00
67901;DHT22;54700;51.796;10.956;2022-07-11T06:34:11;15.90;69.90
67901;DHT22;54700;51.796;10.956;2022-07-11T06:36:39;15.90;69.60
67901;DHT22;54700;51.796;10.956;2022-07-11T06:39:35;15.80;69.40
67901;DHT22;54700;51.796;10.956;2022-07-11T06:42:03;15.80;69.70
67901;DHT22;54700;51.796;10.956;2022-07-11T06:44:30;15.90;69.70
67901;DHT22;54700;51.796;10.956;2022-07-11T06:46:59;15.80;69.10
67901;DHT22;54700;51.796;10.956;2022-07-11T06:49:26;15.70;69.00
67901;DHT22;54700;51.796;10.956;2022-07-11T06:51:53;15.50;69.50
67901;DHT22;54700;51.796;10.956;2022-07-11T06:54:24;15.40;69.70
67901;DHT22;54700;51.796;10.956;2022-07-11T06:56:51;15.30;70.30
67901;DHT22;54700;51.796;10.956;2022-07-11T06:59:20;15.30;70.40
67901;DHT22;54700;51.796;10.956;2022-07-11T07:01:51;15.40;69.80
67901;DHT22;54700;51.796;10.956;2022-07-11T07:04:24;15.40;69.90
67901;DHT22;54700;51.796;10.956;2022-07-11T07:07:03;15.50;70.00
67901;DHT22;54700;51.796;10.956;2022-07-11T07:09:33;15.70;69.80
67901;DHT22;54700;51.796;10.956;2022-07-11T07:12:02;15.80;68.30
67901;DHT22;54700;51.796;10.956;2022-07-11T07:14:31;15.90;68.70
67901;DHT22;54700;51.796;10.956;2022-07-11T07:16:58;16.10;67.40
67901;DHT22;54700;51.796;10.956;2022-07-11T07:19:25;16.20;65.90
67901;DHT22;54700;51.796;10.956;2022-07-11T07:21:52;16.30;67.10
67901;DHT22;54700;51.796;10.956;2022-07-11T07:24:22;16.50;66.30
67901;DHT22;54700;51.796;10.956;2022-07-11T07:26:50;16.50;66.20
67901;DHT22;54700;51.796;10.956;2022-07-11T07:29:20;16.50;66.00
67901;DHT22;54700;51.796;10.956;2022-07-11T07:31:53;16.60;66.00
67901;DHT22;54700;51.796;10.956;2022-07-11T07:34:21;16.80;64.70
67901;DHT22;54700;51.796;10.956;2022-07-11T07:36:51;16.90;64.00
67901;DHT22;54700;51.796;10.956;2022-07-11T07:39:19;17.00;63.60
67901;DHT22;54700;51.796;10.956;2022-07-11T07:41:52;17.00;63.80
67901;DHT22;54700;51.796;10.956;2022-07-11T07:44:23;17.00;64.50
67901;DHT22;54700;51.796;10.956;2022-07-11T07:46:58;17.10;64.10
67901;DHT22;54700;51.796;10.956;2022-07-11T07:49:26;17.20;63.90
67901;DHT22;54700;51.796;10.956;2022-07-11T07:51:59;17.10;63.00
67901;DHT22;54700;51.796;10.956;2022-07-11T07:54:27;17.00;63.40
67901;DHT22;54700;51.796;10.956;2022-07-11T07:57:05;16.90;63.90
67901;DHT22;54700;51.796;10.956;2022-07-11T07:59:36;17.00;63.10
67901;DHT22;54700;51.796;10.956;2022-07-11T08:02:05;17.10;62.50
67901;DHT22;54700;51.796;10.956;2022-07-11T08:04:31;17.20;61.40
67901;DHT22;54700;51.796;10.956;2022-07-11T08:06:58;17.20;61.70
67901;DHT22;54700;51.796;10.956;2022-07-11T08:09:26;17.10;61.40
67901;DHT22;54700;51.796;10.956;2022-07-11T08:11:57;17.20;61.60
67901;DHT22;54700;51.796;10.956;2022-07-11T08:14:26;17.20;60.30
67901;DHT22;54700;51.796;10.956;2022-07-11T08:16:53;17.00;60.50
67901;DHT22;54700;51.796;10.956;2022-07-11T08:19:28;17.00;60.20
67901;DHT22;54700;51.796;10.956;2022-07-11T08:22:01;17.10;60.80
67901;DHT22;54700;51.796;10.956;2022-07-11T08:24:28;17.10;61.00
67901;DHT22;54700;51.796;10.956;2022-07-11T08:26:55;17.30;61.30
67901;DHT22;54700;51.796;10.956;2022-07-11T08:29:22;17.50;59.20
67901;DHT22;54700;51.796;10.956;2022-07-11T08:31:53;17.70;59.50
67901;DHT22;54700;51.796;10.956;2022-07-11T08:34:20;17.80;59.10
67901;DHT22;54700;51.796;10.956;2022-07-11T08:36:48;17.90;59.20
67901;DHT22;54700;51.796;10.956;2022-07-11T08:39:19;18.00;59.40
67901;DHT22;54700;51.796;10.956;2022-07-11T08:41:45;18.00;59.10
67901;DHT22;54700;51.796;10.956;2022-07-11T08:44:13;18.00;58.70
67901;DHT22;54700;51.796;10.956;2022-07-11T08:46:41;17.90;59.40
67901;DHT22;54700;51.796;10.956;2022-07-11T08:49:10;17.80;59.00
67901;DHT22;54700;51.796;10.956;2022-07-11T08:51:38;17.70;59.60
67901;DHT22;54700;51.796;10.956;2022-07-11T08:54:08;17.80;59.50
67901;DHT22;54700;51.796;10.956;2022-07-11T08:56:38;17.90;59.90
67901;DHT22;54700;51.796;10.956;2022-07-11T08:59:07;18.10;59.90
67901;DHT22;54700;51.796;10.956;2022-07-11T09:01:44;18.30;59.10
67901;DHT22;54700;51.796;10.956;2022-07-11T09:04:16;18.40;58.30
67901;DHT22;54700;51.796;10.956;2022-07-11T09:07:02;18.40;58.10
67901;DHT22;54700;51.796;10.956;2022-07-11T09:09:39;18.30;57.90
67901;DHT22;54700;51.796;10.956;2022-07-11T09:12:14;18.30;58.20
67901;DHT22;54700;51.796;10.956;2022-07-11T09:14:45;18.20;58.50
67901;DHT22;54700;51.796;10.956;2022-07-11T09:17:14;18.10;59.20
67901;DHT22;54700;51.796;10.956;2022-07-11T09:19:42;18.00;60.10
67901;DHT22;54700;51.796;10.956;2022-07-11T09:22:12;18.10;60.80
67901;DHT22;54700;51.796;10.956;2022-07-11T09:25:02;18.10;59.70
67901;DHT22;54700;51.796;10.956;2022-07-11T09:27:47;18.00;61.00
67901;DHT22;54700;51.796;10.956;2022-07-11T09:30:16;17.80;61.10
67901;DHT22;54700;51.796;10.956;2022-07-11T09:32:55;17.70;61.10
67901;DHT22;54700;51.796;10.956;2022-07-11T09:35:27;17.70;60.40
67901;DHT22;54700;51.796;10.956;2022-07-11T09:38:01;17.80;60.10
67901;DHT22;54700;51.796;10.956;2022-07-11T09:40:38;17.80;59.20
67901;DHT22;54700;51.796;10.956;2022-07-11T09:43:13;17.90;57.60
67901;DHT22;54700;51.796;10.956;2022-07-11T09:45:42;18.00;57.50
67901;DHT22;54700;51.796;10.956;2022-07-11T09:48:10;18.10;57.40
67901;DHT22;54700;51.796;10.956;2022-07-11T09:50:37;18.10;56.10
67901;DHT22;54700;51.796;10.956;2022-07-11T09:53:07;18.10;55.80
67901;DHT22;54700;51.796;10.956;2022-07-11T09:55:38;18.30;55.70
67901;DHT22;54700;51.796;10.956;2022-07-11T09:58:07;18.30;53.90
67901;DHT22;54700;51.796;10.956;2022-07-11T10:00:37;18.30;51.10
67901;DHT22;54700;51.796;10.956;2022-07-11T10:03:05;18.40;52.20
67901;DHT22;54700;51.796;10.956;2022-07-11T10:05:35;18.40;53.50
67901;DHT22;54700;51.796;10.956;2022-07-11T10:08:04;18.40;54.70
67901;DHT22;54700;51.796;10.956;2022-07-11T10:10:33;18.30;55.20
67901;DHT22;54700;51.796;10.956;2022-07-11T10:13:04;18.20;55.10
67901;DHT22;54700;51.796;10.956;2022-07-11T10:15:31;18.10;53.10
67901;DHT22;54700;51.796;10.956;2022-07-11T10:18:04;18.10;52.90
67901;DHT22;54700;51.796;10.956;2022-07-11T10:20:39;18.20;50.90
67901;DHT22;54700;51.796;10.956;2022-07-11T10:23:18;18.30;50.60
67901;DHT22;54700;51.796;10.956;2022-07-11T10:25:56;18.50;50.00
67901;DHT22;54700;51.796;10.956;2022-07-11T10:28:36;18.50;48.30
67901;DHT22;54700;51.796;10.956;2022-07-11T10:31:17;18.70;49.50
67901;DHT22;54700;51.796;10.956;2022-07-11T10:33:58;18.80;48.60
67901;DHT22;54700;51.796;10.956;2022-07-11T10:36:28;18.80;48.50
67901;DHT22;54700;51.796;10.956;2022-07-11T10:41:56;18.80;47.70
67901;DHT22;54700;51.796;10.956;2022-07-11T10:44:26;18.90;47.50
67901;DHT22;54700;51.796;10.956;2022-07-11T10:46:57;19.10;49.70
67901;DHT22;54700;51.796;10.956;2022-07-11T10:49:29;19.20;49.80
67901;DHT22;54700;51.796;10.956;2022-07-11T10:52:04;19.30;50.80
67901;DHT22;54700;51.796;10.956;2022-07-11T10:54:45;19.30;50.30
67901;DHT22;54700;51.796;10.956;2022-07-11T10:57:27;19.30;48.30
67901;DHT22;54700;51.796;10.956;2022-07-11T11:00:02;19.20;47.30
67901;DHT22;54700;51.796;10.956;2022-07-11T11:02:58;19.20;47.90
67901;DHT22;54700;51.796;10.956;2022-07-11T11:05:39;19.20;47.40
67901;DHT22;54700;51.796;10.956;2022-07-11T11:14:16;19.50;48.30
67901;DHT22;54700;51.796;10.956;2022-07-11T11:16:52;19.40;48.50
67901;DHT22;54700;51.796;10.956;2022-07-11T11:22:22;19.40;48.50
67901;DHT22;54700;51.796;10.956;2022-07-11T11:24:54;19.60;47.60
67901;DHT22;54700;51.796;10.956;2022-07-11T11:27:25;19.70;47.30
67901;DHT22;54700;51.796;10.956;2022-07-11T11:29:53;19.80;47.70
67901;DHT22;54700;51.796;10.956;2022-07-11T11:32:28;19.80;48.10
67901;DHT22;54700;51.796;10.956;2022-07-11T11:35:04;19.60;48.40
67901;DHT22;54700;51.796;10.956;2022-07-11T11:37:38;19.50;49.70
67901;DHT22;54700;51.796;10.956;2022-07-11T11:40:08;19.70;50.00
67901;DHT22;54700;51.796;10.956;2022-07-11T11:42:39;20.00;48.50
67901;DHT22;54700;51.796;10.956;2022-07-11T11:45:16;20.20;47.60
67901;DHT22;54700;51.796;10.956;2022-07-11T11:47:50;20.20;48.20
67901;DHT22;54700;51.796;10.956;2022-07-11T11:50:17;20.10;49.00
67901;DHT22;54700;51.796;10.956;2022-07-11T11:52:48;19.90;50.10
67901;DHT22;54700;51.796;10.956;2022-07-11T11:55:17;19.90;50.30
67901;DHT22;54700;51.796;10.956;2022-07-11T11:57:50;19.90;50.50
67901;DHT22;54700;51.796;10.956;2022-07-11T12:00:20;19.90;50.80
67901;DHT22;54700;51.796;10.956;2022-07-11T12:02:52;19.90;51.40
67901;DHT22;54700;51.796;10.956;2022-07-11T12:05:19;19.80;51.10
67901;DHT22;54700;51.796;10.956;2022-07-11T12:07:47;19.80;51.90
67901;DHT22;54700;51.796;10.956;2022-07-11T12:10:13;19.90;51.20
67901;DHT22;54700;51.796;10.956;2022-07-11T12:12:46;20.00;50.80
67901;DHT22;54700;51.796;10.956;2022-07-11T12:15:24;20.10;51.60
67901;DHT22;54700;51.796;10.956;2022-07-11T12:17:55;20.10;49.60
67901;DHT22;54700;51.796;10.956;2022-07-11T12:20:38;20.00;52.10
67901;DHT22;54700;51.796;10.956;2022-07-11T12:23:07;19.90;53.20
67901;DHT22;54700;51.796;10.956;2022-07-11T12:25:35;19.90;53.50
67901;DHT22;54700;51.796;10.956;2022-07-11T12:28:03;19.90;52.70
67901;DHT22;54700;51.796;10.956;2022-07-11T12:30:30;20.00;52.10
67901;DHT22;54700;51.796;10.956;2022-07-11T12:33:11;19.90;50.90
67901;DHT22;54700;51.796;10.956;2022-07-11T12:35:52;20.10;51.60
67901;DHT22;54700;51.796;10.956;2022-07-11T12:38:22;20.20;50.50
67901;DHT22;54700;51.796;10.956;2022-07-11T12:40:59;20.40;49.10
67901;DHT22;54700;51.796;10.956;2022-07-11T12:43:43;20.60;48.70
67901;DHT22;54700;51.796;10.956;2022-07-11T12:46:30;20.70;48.90
67901;DHT22;54700;51.796;10.956;2022-07-11T12:49:01;20.80;49.50
67901;DHT22;54700;51.796;10.956;2022-07-11T12:51:28;20.90;50.60
67901;DHT22;54700;51.796;10.956;2022-07-11T12:53:59;20.70;50.80
67901;DHT22;54700;51.796;10.956;2022-07-11T12:56:26;20.60;50.50
67901;DHT22;54700;51.796;10.956;2022-07-11T12:58:53;20.50;50.60
67901;DHT22;54700;51.796;10.956;2022-07-11T13:01:20;20.50;50.20
67901;DHT22;54700;51.796;10.956;2022-07-11T13:03:56;20.50;49.50
67901;DHT22;54700;51.796;10.956;2022-07-11T13:06:24;20.70;49.20
67901;DHT22;54700;51.796;10.956;2022-07-11T13:09:09;20.80;48.90
67901;DHT22;54700;51.796;10.956;2022-07-11T13:11:38;20.90;50.10
67901;DHT22;54700;51.796;10.956;2022-07-11T13:14:05;20.70;50.40
67901;DHT22;54700;51.796;10.956;2022-07-11T13:16:53;20.50;50.90
67901;DHT22;54700;51.796;10.956;2022-07-11T13:19:19;20.30;51.10
67901;DHT22;54700;51.796;10.956;2022-07-11T13:21:48;20.20;51.50
67901;DHT22;54700;51.796;10.956;2022-07-11T13:24:16;20.20;50.70
67901;DHT22;54700;51.796;10.956;2022-07-11T13:26:43;20.20;50.00
67901;DHT22;54700;51.796;10.956;2022-07-11T13:29:10;20.30;48.50
67901;DHT22;54700;51.796;10.956;2022-07-11T13:31:36;20.30;48.90
67901;DHT22;54700;51.796;10.956;2022-07-11T13:34:03;20.40;49.10
67901;DHT22;54700;51.796;10.956;2022-07-11T13:36:30;20.50;48.80
67901;DHT22;54700;51.796;10.956;2022-07-11T13:38:58;20.60;48.30
67901;DHT22;54700;51.796;10.956;2022-07-11T13:41:25;20.60;49.10
67901;DHT22;54700;51.796;10.956;2022-07-11T13:43:51;20.50;47.40
67901;DHT22;54700;51.796;10.956;2022-07-11T13:46:18;20.40;47.60
67901;DHT22;54700;51.796;10.956;2022-07-11T13:48:45;20.50;47.80
67901;DHT22;54700;51.796;10.956;2022-07-11T13:51:11;20.70;48.00
67901;DHT22;54700;51.796;10.956;2022-07-11T13:53:38;21.00;47.30
67901;DHT22;54700;51.796;10.956;2022-07-11T13:56:07;21.20;46.30
67901;DHT22;54700;51.796;10.956;2022-07-11T13:58:34;21.40;45.60
67901;DHT22;54700;51.796;10.956;2022-07-11T14:01:01;21.40;45.40
67901;DHT22;54700;51.796;10.956;2022-07-11T14:03:28;21.40;43.50
67901;DHT22;54700;51.796;10.956;2022-07-11T14:05:56;21.30;44.30
67901;DHT22;54700;51.796;10.956;2022-07-11T14:08:22;21.30;43.90
67901;DHT22;54700;51.796;10.956;2022-07-11T14:10:49;21.10;42.50
67901;DHT22;54700;51.796;10.956;2022-07-11T14:13:18;21.00;42.50
67901;DHT22;54700;51.796;10.956;2022-07-11T14:15:45;20.90;43.30
67901;DHT22;54700;51.796;10.956;2022-07-11T14:18:12;21.00;44.20
67901;DHT22;54700;51.796;10.956;2022-07-11T14:20:39;21.10;44.80
67901;DHT22;54700;51.796;10.956;2022-07-11T14:23:05;21.20;45.20
67901;DHT22;54700;51.796;10.956;2022-07-11T14:25:32;21.30;45.30
67901;DHT22;54700;51.796;10.956;2022-07-11T14:27:59;21.40;45.60
67901;DHT22;54700;51.796;10.956;2022-07-11T14:30:27;21.50;47.50
67901;DHT22;54700;51.796;10.956;2022-07-11T14:32:54;21.30;46.40
67901;DHT22;54700;51.796;10.956;2022-07-11T14:35:21;21.10;47.60
67901;DHT22;54700;51.796;10.956;2022-07-11T14:37:48;21.10;47.30
67901;DHT22;54700;51.796;10.956;2022-07-11T14:40:15;21.10;47.50
67901;DHT22;54700;51.796;10.956;2022-07-11T14:42:42;21.30;47.10
67901;DHT22;54700;51.796;10.956;2022-07-11T14:45:09;21.30;46.90
67901;DHT22;54700;51.796;10.956;2022-07-11T14:47:38;21.30;46.90
67901;DHT22;54700;51.796;10.956;2022-07-11T14:50:05;21.40;46.50
67901;DHT22;54700;51.796;10.956;2022-07-11T14:52:34;21.40;46.90
67901;DHT22;54700;51.796;10.956;2022-07-11T14:55:01;21.40;46.80
67901;DHT22;54700;51.796;10.956;2022-07-11T14:57:28;21.40;46.00
67901;DHT22;54700;51.796;10.956;2022-07-11T14:59:55;21.30;46.60
67901;DHT22;54700;51.796;10.956;2022-07-11T15:02:22;21.30;47.50
67901;DHT22;54700;51.796;10.956;2022-07-11T15:05:04;21.30;47.10
67901;DHT22;54700;51.796;10.956;2022-07-11T15:07:31;21.40;46.50
67901;DHT22;54700;51.796;10.956;2022-07-11T15:10:15;21.30;46.90
67901;DHT22;54700;51.796;10.956;2022-07-11T15:12:59;21.30;47.80
67901;DHT22;54700;51.796;10.956;2022-07-11T15:15:26;21.30;48.00
67901;DHT22;54700;51.796;10.956;2022-07-11T15:17:54;21.20;49.70
67901;DHT22;54700;51.796;10.956;2022-07-11T15:20:23;21.00;50.30
67901;DHT22;54700;51.796;10.956;2022-07-11T15:22:49;20.90;51.20
67901;DHT22;54700;51.796;10.956;2022-07-11T15:25:16;20.90;51.20
67901;DHT22;54700;51.796;10.956;2022-07-11T15:27:46;21.00;51.60
67901;DHT22;54700;51.796;10.956;2022-07-11T15:30:12;21.10;50.30
67901;DHT22;54700;51.796;10.956;2022-07-11T15:32:42;21.20;50.60
67901;DHT22;54700;51.796;10.956;2022-07-11T15:35:13;21.30;50.90
67901;DHT22;54700;51.796;10.956;2022-07-11T15:37:42;21.30;51.10
67901;DHT22;54700;51.796;10.956;2022-07-11T15:40:09;21.30;51.10
67901;DHT22;54700;51.796;10.956;2022-07-11T15:42:37;21.30;50.80
67901;DHT22;54700;51.796;10.956;2022-07-11T15:45:04;21.30;51.50